KIJX/IJX METAR and TAF weather

Enter ICAO airport designator
Station Type Date Time Source
KIJX METAR 2020/09/25 07:35 UTC NOAA

KIJX 250735Z AUTO 19004KT 10SM CLR 15/13 A2995 RMK AO2 T01490132


Station Type Date Time Source
KIJX Decoded METAR 2020/09/25 07:35 UTC NOAA

Jacksonville, Jacksonville Municipal Airport, IL, United States (KIJX) 39-46-27N 090-14-19W
Sep 25, 2020 - 03:35 AM EDT / 2020.09.25 0735 UTC
Wind: from the S (190 degrees) at 5 MPH (4 KT):0
Visibility: 10 mile(s):0
Sky conditions: clear
Temperature: 58.8 F (14.9 C)
Dew Point: 55.8 F (13.2 C)
Relative Humidity: 89%
Pressure (altimeter): 29.95 in. Hg (1014 hPa)
ob: KIJX 250735Z AUTO 19004KT 10SM CLR 15/13 A2995 RMK AO2 T01490132
cycle: 7

Station Type Date Time Source
KIJX TAF UTC NOAA

Error!

Example: see airport list